sensor_id;sensor_type;location;lat;lon;timestamp;P1;durP1;ratioP1;P2;durP2;ratioP2
3257;SDS011;1641;51.306;12.384;2022-10-31T00:01:20;16.65;;;10.38;;
3257;SDS011;1641;51.306;12.384;2022-10-31T00:03:51;19.05;;;10.48;;
3257;SDS011;1641;51.306;12.384;2022-10-31T00:06:16;17.95;;;10.30;;
3257;SDS011;1641;51.306;12.384;2022-10-31T00:08:49;17.73;;;10.65;;
3257;SDS011;1641;51.306;12.384;2022-10-31T00:11:17;12.95;;;9.43;;
3257;SDS011;1641;51.306;12.384;2022-10-31T00:13:42;16.27;;;10.25;;
3257;SDS011;1641;51.306;12.384;2022-10-31T00:16:17;14.32;;;9.60;;
3257;SDS011;1641;51.306;12.384;2022-10-31T00:18:47;19.42;;;9.18;;
3257;SDS011;1641;51.306;12.384;2022-10-31T00:21:14;22.08;;;11.73;;
3257;SDS011;1641;51.306;12.384;2022-10-31T00:23:40;15.95;;;8.27;;
3257;SDS011;1641;51.306;12.384;2022-10-31T00:26:05;15.00;;;9.45;;
3257;SDS011;1641;51.306;12.384;2022-10-31T00:28:31;18.48;;;10.52;;
3257;SDS011;1641;51.306;12.384;2022-10-31T00:30:58;18.27;;;8.68;;
3257;SDS011;1641;51.306;12.384;2022-10-31T00:33:28;15.82;;;8.63;;
3257;SDS011;1641;51.306;12.384;2022-10-31T00:35:54;13.68;;;8.88;;
3257;SDS011;1641;51.306;12.384;2022-10-31T00:38:20;13.63;;;7.85;;
3257;SDS011;1641;51.306;12.384;2022-10-31T00:40:45;17.83;;;8.65;;
3257;SDS011;1641;51.306;12.384;2022-10-31T00:43:10;17.88;;;7.38;;
3257;SDS011;1641;51.306;12.384;2022-10-31T00:45:35;13.50;;;8.65;;
3257;SDS011;1641;51.306;12.384;2022-10-31T00:48:01;15.68;;;8.25;;
3257;SDS011;1641;51.306;12.384;2022-10-31T00:50:26;19.85;;;9.30;;
3257;SDS011;1641;51.306;12.384;2022-10-31T00:52:51;13.02;;;8.20;;
3257;SDS011;1641;51.306;12.384;2022-10-31T00:55:17;16.05;;;9.13;;
3257;SDS011;1641;51.306;12.384;2022-10-31T00:57:42;16.73;;;8.55;;
3257;SDS011;1641;51.306;12.384;2022-10-31T01:00:07;16.05;;;7.50;;
3257;SDS011;1641;51.306;12.384;2022-10-31T01:02:33;14.85;;;8.05;;
3257;SDS011;1641;51.306;12.384;2022-10-31T01:04:59;13.70;;;8.18;;
3257;SDS011;1641;51.306;12.384;2022-10-31T01:07:24;15.68;;;7.22;;
3257;SDS011;1641;51.306;12.384;2022-10-31T01:09:49;19.13;;;7.70;;
3257;SDS011;1641;51.306;12.384;2022-10-31T01:12:14;12.27;;;8.00;;
3257;SDS011;1641;51.306;12.384;2022-10-31T01:14:43;14.98;;;6.80;;
3257;SDS011;1641;51.306;12.384;2022-10-31T01:17:09;13.45;;;7.03;;
3257;SDS011;1641;51.306;12.384;2022-10-31T01:19:35;18.38;;;7.88;;
3257;SDS011;1641;51.306;12.384;2022-10-31T01:22:00;15.25;;;8.43;;
3257;SDS011;1641;51.306;12.384;2022-10-31T01:24:26;12.05;;;7.93;;
3257;SDS011;1641;51.306;12.384;2022-10-31T01:26:51;12.45;;;7.93;;
3257;SDS011;1641;51.306;12.384;2022-10-31T01:29:16;14.57;;;8.50;;
3257;SDS011;1641;51.306;12.384;2022-10-31T01:31:42;13.32;;;8.00;;
3257;SDS011;1641;51.306;12.384;2022-10-31T01:34:14;16.45;;;8.98;;
3257;SDS011;1641;51.306;12.384;2022-10-31T01:36:41;15.50;;;10.70;;
3257;SDS011;1641;51.306;12.384;2022-10-31T01:39:08;17.02;;;11.45;;
3257;SDS011;1641;51.306;12.384;2022-10-31T01:41:37;16.13;;;9.57;;
3257;SDS011;1641;51.306;12.384;2022-10-31T01:49:23;19.65;;;10.13;;
3257;SDS011;1641;51.306;12.384;2022-10-31T01:54:32;20.38;;;10.63;;
3257;SDS011;1641;51.306;12.384;2022-10-31T01:57:00;20.10;;;9.60;;
3257;SDS011;1641;51.306;12.384;2022-10-31T01:59:30;27.02;;;10.45;;
3257;SDS011;1641;51.306;12.384;2022-10-31T02:02:03;14.55;;;9.02;;
3257;SDS011;1641;51.306;12.384;2022-10-31T02:04:29;16.75;;;9.25;;
3257;SDS011;1641;51.306;12.384;2022-10-31T02:06:58;13.25;;;8.95;;
3257;SDS011;1641;51.306;12.384;2022-10-31T02:09:28;12.68;;;8.75;;
3257;SDS011;1641;51.306;12.384;2022-10-31T02:11:56;20.63;;;8.90;;
3257;SDS011;1641;51.306;12.384;2022-10-31T02:14:24;11.57;;;7.85;;
3257;SDS011;1641;51.306;12.384;2022-10-31T02:16:51;13.35;;;7.55;;
3257;SDS011;1641;51.306;12.384;2022-10-31T02:19:22;13.85;;;8.23;;
3257;SDS011;1641;51.306;12.384;2022-10-31T02:22:10;13.13;;;8.70;;
3257;SDS011;1641;51.306;12.384;2022-10-31T02:24:49;17.35;;;7.95;;
3257;SDS011;1641;51.306;12.384;2022-10-31T02:30:06;12.77;;;7.85;;
3257;SDS011;1641;51.306;12.384;2022-10-31T02:35:49;20.55;;;7.35;;
3257;SDS011;1641;51.306;12.384;2022-10-31T02:38:37;14.93;;;7.90;;
3257;SDS011;1641;51.306;12.384;2022-10-31T02:46:57;14.35;;;8.50;;
3257;SDS011;1641;51.306;12.384;2022-10-31T02:49:43;10.68;;;7.05;;
3257;SDS011;1641;51.306;12.384;2022-10-31T02:54:45;11.32;;;7.22;;
3257;SDS011;1641;51.306;12.384;2022-10-31T02:57:15;18.50;;;7.57;;
3257;SDS011;1641;51.306;12.384;2022-10-31T02:59:49;18.27;;;8.23;;
3257;SDS011;1641;51.306;12.384;2022-10-31T03:11:05;12.50;;;7.30;;
3257;SDS011;1641;51.306;12.384;2022-10-31T03:18:37;12.27;;;8.10;;
3257;SDS011;1641;51.306;12.384;2022-10-31T03:21:11;17.00;;;7.90;;
3257;SDS011;1641;51.306;12.384;2022-10-31T03:23:39;11.45;;;7.60;;
3257;SDS011;1641;51.306;12.384;2022-10-31T03:26:07;10.55;;;7.88;;
3257;SDS011;1641;51.306;12.384;2022-10-31T03:28:36;15.52;;;7.93;;
3257;SDS011;1641;51.306;12.384;2022-10-31T03:33:35;16.40;;;7.60;;
3257;SDS011;1641;51.306;12.384;2022-10-31T03:36:04;15.63;;;7.93;;
3257;SDS011;1641;51.306;12.384;2022-10-31T03:38:32;13.05;;;7.90;;
3257;SDS011;1641;51.306;12.384;2022-10-31T03:41:00;16.00;;;7.45;;
3257;SDS011;1641;51.306;12.384;2022-10-31T03:43:28;14.63;;;8.18;;
3257;SDS011;1641;51.306;12.384;2022-10-31T03:45:56;14.82;;;8.40;;
3257;SDS011;1641;51.306;12.384;2022-10-31T03:48:23;12.95;;;7.95;;
3257;SDS011;1641;51.306;12.384;2022-10-31T03:50:50;15.00;;;8.35;;
3257;SDS011;1641;51.306;12.384;2022-10-31T03:53:45;16.42;;;8.27;;
3257;SDS011;1641;51.306;12.384;2022-10-31T03:56:10;13.50;;;8.40;;
3257;SDS011;1641;51.306;12.384;2022-10-31T03:58:39;11.50;;;7.32;;
3257;SDS011;1641;51.306;12.384;2022-10-31T04:01:11;19.45;;;10.02;;
3257;SDS011;1641;51.306;12.384;2022-10-31T04:03:41;12.93;;;8.73;;
3257;SDS011;1641;51.306;12.384;2022-10-31T04:06:08;14.07;;;9.82;;
3257;SDS011;1641;51.306;12.384;2022-10-31T04:08:38;16.35;;;8.57;;
3257;SDS011;1641;51.306;12.384;2022-10-31T04:11:07;14.65;;;8.88;;
3257;SDS011;1641;51.306;12.384;2022-10-31T04:13:35;19.13;;;9.65;;
3257;SDS011;1641;51.306;12.384;2022-10-31T04:16:03;17.58;;;8.05;;
3257;SDS011;1641;51.306;12.384;2022-10-31T04:18:29;11.23;;;8.77;;
3257;SDS011;1641;51.306;12.384;2022-10-31T04:21:04;17.42;;;8.70;;
3257;SDS011;1641;51.306;12.384;2022-10-31T04:23:31;31.73;;;16.33;;
3257;SDS011;1641;51.306;12.384;2022-10-31T04:25:57;20.38;;;12.45;;
3257;SDS011;1641;51.306;12.384;2022-10-31T04:28:23;32.53;;;19.20;;
3257;SDS011;1641;51.306;12.384;2022-10-31T04:30:48;23.67;;;12.93;;
3257;SDS011;1641;51.306;12.384;2022-10-31T04:33:14;17.52;;;11.70;;
3257;SDS011;1641;51.306;12.384;2022-10-31T04:35:39;20.90;;;11.27;;
3257;SDS011;1641;51.306;12.384;2022-10-31T04:38:05;43.80;;;10.52;;
3257;SDS011;1641;51.306;12.384;2022-10-31T04:40:30;14.23;;;9.18;;
3257;SDS011;1641;51.306;12.384;2022-10-31T04:42:56;17.00;;;9.30;;
3257;SDS011;1641;51.306;12.384;2022-10-31T04:45:21;268.88;;;135.05;;
3257;SDS011;1641;51.306;12.384;2022-10-31T04:47:46;120.82;;;56.88;;
3257;SDS011;1641;51.306;12.384;2022-10-31T04:50:12;48.05;;;25.75;;
3257;SDS011;1641;51.306;12.384;2022-10-31T04:52:41;107.22;;;55.45;;
3257;SDS011;1641;51.306;12.384;2022-10-31T04:55:07;110.75;;;57.13;;
3257;SDS011;1641;51.306;12.384;2022-10-31T04:57:40;67.40;;;32.83;;
3257;SDS011;1641;51.306;12.384;2022-10-31T05:00:07;94.15;;;47.28;;
3257;SDS011;1641;51.306;12.384;2022-10-31T05:02:33;78.47;;;39.08;;
3257;SDS011;1641;51.306;12.384;2022-10-31T05:04:58;69.00;;;33.30;;
3257;SDS011;1641;51.306;12.384;2022-10-31T05:07:23;85.97;;;42.60;;
3257;SDS011;1641;51.306;12.384;2022-10-31T05:09:49;27.85;;;11.25;;
3257;SDS011;1641;51.306;12.384;2022-10-31T05:12:14;60.85;;;30.52;;
3257;SDS011;1641;51.306;12.384;2022-10-31T05:14:39;65.57;;;32.67;;
3257;SDS011;1641;51.306;12.384;2022-10-31T05:17:05;41.17;;;21.25;;
3257;SDS011;1641;51.306;12.384;2022-10-31T05:19:30;28.00;;;17.02;;
3257;SDS011;1641;51.306;12.384;2022-10-31T05:21:55;56.70;;;30.20;;
3257;SDS011;1641;51.306;12.384;2022-10-31T05:24:20;44.38;;;20.17;;
3257;SDS011;1641;51.306;12.384;2022-10-31T05:26:46;28.15;;;15.98;;
3257;SDS011;1641;51.306;12.384;2022-10-31T05:29:12;15.75;;;9.50;;
3257;SDS011;1641;51.306;12.384;2022-10-31T05:31:38;16.60;;;8.68;;
3257;SDS011;1641;51.306;12.384;2022-10-31T05:34:03;15.23;;;8.68;;
3257;SDS011;1641;51.306;12.384;2022-10-31T05:36:28;14.93;;;8.75;;
3257;SDS011;1641;51.306;12.384;2022-10-31T05:38:54;16.90;;;9.88;;
3257;SDS011;1641;51.306;12.384;2022-10-31T05:41:19;15.50;;;9.63;;
3257;SDS011;1641;51.306;12.384;2022-10-31T05:43:44;13.63;;;9.80;;
3257;SDS011;1641;51.306;12.384;2022-10-31T05:46:10;12.73;;;8.65;;
3257;SDS011;1641;51.306;12.384;2022-10-31T05:48:35;17.67;;;9.15;;
3257;SDS011;1641;51.306;12.384;2022-10-31T05:51:01;14.95;;;10.27;;
3257;SDS011;1641;51.306;12.384;2022-10-31T05:53:26;16.90;;;9.40;;
3257;SDS011;1641;51.306;12.384;2022-10-31T05:55:51;10.25;;;7.93;;
3257;SDS011;1641;51.306;12.384;2022-10-31T05:58:16;13.10;;;7.65;;
3257;SDS011;1641;51.306;12.384;2022-10-31T06:00:42;19.23;;;8.05;;
3257;SDS011;1641;51.306;12.384;2022-10-31T06:03:07;16.23;;;9.75;;
3257;SDS011;1641;51.306;12.384;2022-10-31T06:05:34;17.77;;;9.82;;
3257;SDS011;1641;51.306;12.384;2022-10-31T06:07:59;13.27;;;8.35;;
3257;SDS011;1641;51.306;12.384;2022-10-31T06:10:25;17.73;;;8.30;;
3257;SDS011;1641;51.306;12.384;2022-10-31T06:12:51;13.65;;;9.77;;
3257;SDS011;1641;51.306;12.384;2022-10-31T06:15:16;11.75;;;8.43;;
3257;SDS011;1641;51.306;12.384;2022-10-31T06:17:42;14.43;;;9.10;;
3257;SDS011;1641;51.306;12.384;2022-10-31T06:20:08;17.90;;;9.30;;
3257;SDS011;1641;51.306;12.384;2022-10-31T06:22:33;19.25;;;9.30;;
3257;SDS011;1641;51.306;12.384;2022-10-31T06:24:59;20.67;;;9.38;;
3257;SDS011;1641;51.306;12.384;2022-10-31T06:27:24;14.32;;;8.88;;
3257;SDS011;1641;51.306;12.384;2022-10-31T06:29:50;17.13;;;8.93;;
3257;SDS011;1641;51.306;12.384;2022-10-31T06:32:15;14.82;;;8.98;;
3257;SDS011;1641;51.306;12.384;2022-10-31T06:34:41;15.88;;;8.93;;
3257;SDS011;1641;51.306;12.384;2022-10-31T06:37:07;9.73;;;7.55;;
3257;SDS011;1641;51.306;12.384;2022-10-31T06:39:33;16.40;;;9.10;;
3257;SDS011;1641;51.306;12.384;2022-10-31T06:41:59;12.32;;;7.78;;
3257;SDS011;1641;51.306;12.384;2022-10-31T06:44:24;16.13;;;8.00;;
3257;SDS011;1641;51.306;12.384;2022-10-31T06:46:49;15.30;;;8.93;;
3257;SDS011;1641;51.306;12.384;2022-10-31T06:49:15;13.20;;;8.73;;
3257;SDS011;1641;51.306;12.384;2022-10-31T06:51:40;16.52;;;8.75;;
3257;SDS011;1641;51.306;12.384;2022-10-31T06:54:06;13.63;;;9.15;;
3257;SDS011;1641;51.306;12.384;2022-10-31T06:56:31;14.63;;;8.70;;
3257;SDS011;1641;51.306;12.384;2022-10-31T06:58:56;18.27;;;10.27;;
3257;SDS011;1641;51.306;12.384;2022-10-31T07:01:22;11.98;;;7.65;;
3257;SDS011;1641;51.306;12.384;2022-10-31T07:03:47;12.07;;;8.32;;
3257;SDS011;1641;51.306;12.384;2022-10-31T07:06:16;14.85;;;8.18;;
3257;SDS011;1641;51.306;12.384;2022-10-31T07:08:41;11.13;;;7.13;;
3257;SDS011;1641;51.306;12.384;2022-10-31T07:11:06;13.98;;;9.60;;
3257;SDS011;1641;51.306;12.384;2022-10-31T07:13:32;18.50;;;12.88;;
3257;SDS011;1641;51.306;12.384;2022-10-31T07:16:01;18.58;;;7.82;;
3257;SDS011;1641;51.306;12.384;2022-10-31T07:18:29;16.85;;;9.25;;
3257;SDS011;1641;51.306;12.384;2022-10-31T07:20:55;9.85;;;7.30;;
3257;SDS011;1641;51.306;12.384;2022-10-31T07:23:21;15.77;;;9.60;;
3257;SDS011;1641;51.306;12.384;2022-10-31T07:25:46;14.77;;;8.52;;
3257;SDS011;1641;51.306;12.384;2022-10-31T07:28:12;13.15;;;7.43;;
3257;SDS011;1641;51.306;12.384;2022-10-31T07:30:37;12.10;;;7.18;;
3257;SDS011;1641;51.306;12.384;2022-10-31T07:33:03;13.45;;;7.53;;
3257;SDS011;1641;51.306;12.384;2022-10-31T07:35:29;13.25;;;7.00;;
3257;SDS011;1641;51.306;12.384;2022-10-31T07:37:55;13.88;;;6.60;;
3257;SDS011;1641;51.306;12.384;2022-10-31T07:40:21;18.08;;;7.32;;
3257;SDS011;1641;51.306;12.384;2022-10-31T07:42:49;11.05;;;5.80;;
3257;SDS011;1641;51.306;12.384;2022-10-31T07:45:19;11.32;;;5.35;;
3257;SDS011;1641;51.306;12.384;2022-10-31T07:47:46;20.48;;;6.90;;
3257;SDS011;1641;51.306;12.384;2022-10-31T07:50:19;10.45;;;6.32;;
3257;SDS011;1641;51.306;12.384;2022-10-31T07:52:47;8.80;;;5.45;;
3257;SDS011;1641;51.306;12.384;2022-10-31T07:55:13;8.98;;;5.53;;
3257;SDS011;1641;51.306;12.384;2022-10-31T07:57:39;9.80;;;5.45;;
3257;SDS011;1641;51.306;12.384;2022-10-31T08:00:05;10.23;;;6.85;;
3257;SDS011;1641;51.306;12.384;2022-10-31T08:02:32;16.52;;;6.47;;
3257;SDS011;1641;51.306;12.384;2022-10-31T08:04:57;11.50;;;6.28;;
3257;SDS011;1641;51.306;12.384;2022-10-31T08:07:22;15.68;;;6.78;;
3257;SDS011;1641;51.306;12.384;2022-10-31T08:09:48;9.60;;;5.80;;
3257;SDS011;1641;51.306;12.384;2022-10-31T08:12:13;11.40;;;5.90;;
3257;SDS011;1641;51.306;12.384;2022-10-31T08:14:38;12.85;;;6.20;;
3257;SDS011;1641;51.306;12.384;2022-10-31T08:17:04;12.70;;;5.38;;
3257;SDS011;1641;51.306;12.384;2022-10-31T08:19:29;11.80;;;6.13;;
3257;SDS011;1641;51.306;12.384;2022-10-31T08:21:54;8.25;;;5.28;;
3257;SDS011;1641;51.306;12.384;2022-10-31T08:24:23;11.30;;;5.88;;
3257;SDS011;1641;51.306;12.384;2022-10-31T08:26:48;8.30;;;5.32;;
3257;SDS011;1641;51.306;12.384;2022-10-31T08:29:14;9.23;;;5.88;;
3257;SDS011;1641;51.306;12.384;2022-10-31T08:31:39;9.20;;;5.85;;
3257;SDS011;1641;51.306;12.384;2022-10-31T08:34:05;8.95;;;5.45;;
3257;SDS011;1641;51.306;12.384;2022-10-31T08:36:31;12.40;;;6.40;;
3257;SDS011;1641;51.306;12.384;2022-10-31T08:38:56;12.15;;;6.43;;
3257;SDS011;1641;51.306;12.384;2022-10-31T08:41:21;14.90;;;6.38;;
3257;SDS011;1641;51.306;12.384;2022-10-31T08:43:47;8.77;;;5.78;;
3257;SDS011;1641;51.306;12.384;2022-10-31T08:46:12;13.70;;;6.18;;
3257;SDS011;1641;51.306;12.384;2022-10-31T08:48:38;12.93;;;6.22;;
3257;SDS011;1641;51.306;12.384;2022-10-31T08:51:03;9.52;;;5.55;;
3257;SDS011;1641;51.306;12.384;2022-10-31T08:53:29;12.50;;;5.55;;
3257;SDS011;1641;51.306;12.384;2022-10-31T08:55:55;15.38;;;7.03;;
3257;SDS011;1641;51.306;12.384;2022-10-31T08:58:22;11.18;;;6.75;;
3257;SDS011;1641;51.306;12.384;2022-10-31T09:00:49;11.55;;;6.40;;
3257;SDS011;1641;51.306;12.384;2022-10-31T09:03:18;14.75;;;8.02;;
3257;SDS011;1641;51.306;12.384;2022-10-31T09:05:55;21.00;;;8.40;;
3257;SDS011;1641;51.306;12.384;2022-10-31T09:08:25;15.52;;;7.10;;
3257;SDS011;1641;51.306;12.384;2022-10-31T09:10:51;13.70;;;8.15;;
3257;SDS011;1641;51.306;12.384;2022-10-31T09:13:18;16.58;;;8.70;;
3257;SDS011;1641;51.306;12.384;2022-10-31T09:15:46;19.58;;;8.85;;
3257;SDS011;1641;51.306;12.384;2022-10-31T09:18:13;17.08;;;8.98;;
3257;SDS011;1641;51.306;12.384;2022-10-31T09:20:42;22.88;;;10.98;;
3257;SDS011;1641;51.306;12.384;2022-10-31T09:23:09;25.60;;;11.45;;
3257;SDS011;1641;51.306;12.384;2022-10-31T09:25:35;27.92;;;14.65;;
3257;SDS011;1641;51.306;12.384;2022-10-31T09:28:02;21.75;;;13.88;;
3257;SDS011;1641;51.306;12.384;2022-10-31T09:30:32;31.20;;;17.27;;
3257;SDS011;1641;51.306;12.384;2022-10-31T09:33:00;31.23;;;17.58;;
3257;SDS011;1641;51.306;12.384;2022-10-31T09:35:31;30.73;;;17.55;;
3257;SDS011;1641;51.306;12.384;2022-10-31T09:38:00;35.60;;;18.30;;
3257;SDS011;1641;51.306;12.384;2022-10-31T09:40:31;32.05;;;16.40;;
3257;SDS011;1641;51.306;12.384;2022-10-31T09:45:47;34.22;;;19.23;;
3257;SDS011;1641;51.306;12.384;2022-10-31T09:51:10;45.00;;;19.70;;
3257;SDS011;1641;51.306;12.384;2022-10-31T09:56:13;40.15;;;20.05;;
3257;SDS011;1641;51.306;12.384;2022-10-31T09:58:43;61.10;;;29.42;;
3257;SDS011;1641;51.306;12.384;2022-10-31T10:01:19;45.10;;;22.50;;
3257;SDS011;1641;51.306;12.384;2022-10-31T10:03:54;44.42;;;20.13;;
3257;SDS011;1641;51.306;12.384;2022-10-31T10:06:25;34.97;;;19.17;;
3257;SDS011;1641;51.306;12.384;2022-10-31T10:08:54;38.50;;;19.33;;
3257;SDS011;1641;51.306;12.384;2022-10-31T10:11:25;41.58;;;20.95;;
3257;SDS011;1641;51.306;12.384;2022-10-31T10:19:22;36.85;;;20.38;;
3257;SDS011;1641;51.306;12.384;2022-10-31T10:27:36;43.95;;;22.20;;
3257;SDS011;1641;51.306;12.384;2022-10-31T10:32:52;46.28;;;21.20;;
3257;SDS011;1641;51.306;12.384;2022-10-31T10:38:14;44.13;;;21.23;;
3257;SDS011;1641;51.306;12.384;2022-10-31T10:40:56;39.15;;;21.80;;
3257;SDS011;1641;51.306;12.384;2022-10-31T10:43:28;51.55;;;21.15;;
3257;SDS011;1641;51.306;12.384;2022-10-31T10:49:19;46.30;;;22.48;;
3257;SDS011;1641;51.306;12.384;2022-10-31T11:02:50;48.97;;;23.48;;
3257;SDS011;1641;51.306;12.384;2022-10-31T11:05:28;39.10;;;23.00;;
3257;SDS011;1641;51.306;12.384;2022-10-31T11:10:58;47.17;;;22.45;;
3257;SDS011;1641;51.306;12.384;2022-10-31T11:13:35;47.80;;;23.58;;
3257;SDS011;1641;51.306;12.384;2022-10-31T11:16:12;42.13;;;22.67;;
3257;SDS011;1641;51.306;12.384;2022-10-31T11:18:42;42.83;;;22.60;;
3257;SDS011;1641;51.306;12.384;2022-10-31T11:21:23;40.85;;;22.08;;
3257;SDS011;1641;51.306;12.384;2022-10-31T11:24:01;45.95;;;22.63;;
3257;SDS011;1641;51.306;12.384;2022-10-31T11:26:30;42.45;;;21.10;;
3257;SDS011;1641;51.306;12.384;2022-10-31T11:28:56;52.95;;;22.17;;
3257;SDS011;1641;51.306;12.384;2022-10-31T11:31:32;42.15;;;22.65;;
3257;SDS011;1641;51.306;12.384;2022-10-31T11:34:00;40.13;;;22.05;;
3257;SDS011;1641;51.306;12.384;2022-10-31T11:36:37;43.90;;;21.95;;
3257;SDS011;1641;51.306;12.384;2022-10-31T11:39:17;41.80;;;22.52;;
3257;SDS011;1641;51.306;12.384;2022-10-31T11:41:55;42.67;;;21.73;;
3257;SDS011;1641;51.306;12.384;2022-10-31T11:44:36;42.75;;;21.75;;
3257;SDS011;1641;51.306;12.384;2022-10-31T11:47:12;41.53;;;21.27;;
3257;SDS011;1641;51.306;12.384;2022-10-31T11:49:45;42.08;;;22.40;;
3257;SDS011;1641;51.306;12.384;2022-10-31T11:52:20;40.03;;;20.20;;
3257;SDS011;1641;51.306;12.384;2022-10-31T11:57:32;43.95;;;20.40;;
3257;SDS011;1641;51.306;12.384;2022-10-31T12:03:03;37.03;;;22.10;;
3257;SDS011;1641;51.306;12.384;2022-10-31T12:06:00;45.08;;;22.40;;
3257;SDS011;1641;51.306;12.384;2022-10-31T12:08:33;36.17;;;20.63;;
3257;SDS011;1641;51.306;12.384;2022-10-31T12:11:07;41.42;;;20.60;;
3257;SDS011;1641;51.306;12.384;2022-10-31T12:16:25;46.13;;;20.42;;
3257;SDS011;1641;51.306;12.384;2022-10-31T12:19:04;41.67;;;21.63;;
3257;SDS011;1641;51.306;12.384;2022-10-31T12:24:27;49.03;;;22.58;;
3257;SDS011;1641;51.306;12.384;2022-10-31T12:45:52;44.92;;;23.00;;
3257;SDS011;1641;51.306;12.384;2022-10-31T12:48:39;40.53;;;20.42;;
3257;SDS011;1641;51.306;12.384;2022-10-31T12:59:43;38.80;;;20.00;;
3257;SDS011;1641;51.306;12.384;2022-10-31T13:02:20;43.40;;;22.35;;
3257;SDS011;1641;51.306;12.384;2022-10-31T13:07:15;48.60;;;21.83;;
3257;SDS011;1641;51.306;12.384;2022-10-31T13:10:02;40.42;;;19.95;;
3257;SDS011;1641;51.306;12.384;2022-10-31T13:12:29;44.15;;;22.67;;
3257;SDS011;1641;51.306;12.384;2022-10-31T13:15:05;43.67;;;20.52;;
3257;SDS011;1641;51.306;12.384;2022-10-31T13:17:41;45.72;;;20.70;;
3257;SDS011;1641;51.306;12.384;2022-10-31T13:20:15;41.95;;;21.30;;
3257;SDS011;1641;51.306;12.384;2022-10-31T13:22:56;41.45;;;19.98;;
3257;SDS011;1641;51.306;12.384;2022-10-31T13:25:40;49.40;;;21.63;;
3257;SDS011;1641;51.306;12.384;2022-10-31T13:30:50;41.42;;;20.83;;
3257;SDS011;1641;51.306;12.384;2022-10-31T13:33:26;38.78;;;21.33;;
3257;SDS011;1641;51.306;12.384;2022-10-31T13:38:41;36.30;;;18.92;;
3257;SDS011;1641;51.306;12.384;2022-10-31T13:46:36;42.97;;;20.67;;
3257;SDS011;1641;51.306;12.384;2022-10-31T13:51:50;43.40;;;20.02;;
3257;SDS011;1641;51.306;12.384;2022-10-31T13:54:31;33.20;;;16.98;;
3257;SDS011;1641;51.306;12.384;2022-10-31T13:56:58;35.05;;;18.75;;
3257;SDS011;1641;51.306;12.384;2022-10-31T13:59:34;42.13;;;18.00;;
3257;SDS011;1641;51.306;12.384;2022-10-31T14:02:02;31.13;;;17.70;;
3257;SDS011;1641;51.306;12.384;2022-10-31T14:04:49;39.20;;;18.45;;
3257;SDS011;1641;51.306;12.384;2022-10-31T14:07:22;35.75;;;18.13;;
3257;SDS011;1641;51.306;12.384;2022-10-31T14:10:05;38.17;;;17.80;;
3257;SDS011;1641;51.306;12.384;2022-10-31T14:12:44;34.42;;;16.80;;
3257;SDS011;1641;51.306;12.384;2022-10-31T14:17:48;29.15;;;16.67;;
3257;SDS011;1641;51.306;12.384;2022-10-31T14:22:44;31.58;;;15.98;;
3257;SDS011;1641;51.306;12.384;2022-10-31T14:27:59;38.72;;;20.05;;
3257;SDS011;1641;51.306;12.384;2022-10-31T14:30:27;37.30;;;20.35;;
3257;SDS011;1641;51.306;12.384;2022-10-31T14:32:59;38.45;;;19.67;;
3257;SDS011;1641;51.306;12.384;2022-10-31T14:35:29;42.33;;;22.30;;
3257;SDS011;1641;51.306;12.384;2022-10-31T14:38:12;46.78;;;22.77;;
3257;SDS011;1641;51.306;12.384;2022-10-31T14:44:07;36.33;;;20.88;;
3257;SDS011;1641;51.306;12.384;2022-10-31T14:47:46;49.22;;;23.65;;
3257;SDS011;1641;51.306;12.384;2022-10-31T14:49:51;32.75;;;20.63;;
3257;SDS011;1641;51.306;12.384;2022-10-31T14:52:30;41.35;;;22.23;;
3257;SDS011;1641;51.306;12.384;2022-10-31T14:54:56;41.35;;;22.80;;
3257;SDS011;1641;51.306;12.384;2022-10-31T14:57:26;39.33;;;21.90;;
3257;SDS011;1641;51.306;12.384;2022-10-31T14:59:56;47.83;;;23.67;;
3257;SDS011;1641;51.306;12.384;2022-10-31T15:02:28;58.17;;;29.13;;
3257;SDS011;1641;51.306;12.384;2022-10-31T15:05:01;63.40;;;26.13;;
3257;SDS011;1641;51.306;12.384;2022-10-31T15:07:34;64.90;;;32.97;;
3257;SDS011;1641;51.306;12.384;2022-10-31T15:10:00;69.55;;;36.20;;
3257;SDS011;1641;51.306;12.384;2022-10-31T15:12:28;63.88;;;30.20;;
3257;SDS011;1641;51.306;12.384;2022-10-31T15:14:56;52.72;;;28.05;;
3257;SDS011;1641;51.306;12.384;2022-10-31T15:17:24;55.85;;;27.70;;
3257;SDS011;1641;51.306;12.384;2022-10-31T15:19:51;48.85;;;24.95;;
3257;SDS011;1641;51.306;12.384;2022-10-31T15:22:19;45.47;;;25.25;;
3257;SDS011;1641;51.306;12.384;2022-10-31T15:24:48;56.97;;;26.98;;
3257;SDS011;1641;51.306;12.384;2022-10-31T15:27:20;52.58;;;25.90;;
3257;SDS011;1641;51.306;12.384;2022-10-31T15:29:53;52.58;;;26.13;;
3257;SDS011;1641;51.306;12.384;2022-10-31T15:32:27;55.50;;;26.40;;
3257;SDS011;1641;51.306;12.384;2022-10-31T15:34:53;57.33;;;27.73;;
3257;SDS011;1641;51.306;12.384;2022-10-31T15:37:24;61.58;;;26.85;;
3257;SDS011;1641;51.306;12.384;2022-10-31T15:39:51;58.00;;;30.50;;
3257;SDS011;1641;51.306;12.384;2022-10-31T15:42:32;56.53;;;29.23;;
3257;SDS011;1641;51.306;12.384;2022-10-31T15:47:38;68.07;;;29.38;;
3257;SDS011;1641;51.306;12.384;2022-10-31T15:52:54;59.00;;;29.38;;
3257;SDS011;1641;51.306;12.384;2022-10-31T15:55:21;59.33;;;30.67;;
3257;SDS011;1641;51.306;12.384;2022-10-31T15:57:55;69.10;;;30.92;;
3257;SDS011;1641;51.306;12.384;2022-10-31T16:00:35;65.82;;;29.98;;
3257;SDS011;1641;51.306;12.384;2022-10-31T16:03:04;61.63;;;32.17;;
3257;SDS011;1641;51.306;12.384;2022-10-31T16:05:34;69.53;;;30.13;;
3257;SDS011;1641;51.306;12.384;2022-10-31T16:08:01;61.72;;;31.02;;
3257;SDS011;1641;51.306;12.384;2022-10-31T16:10:27;74.03;;;34.90;;
3257;SDS011;1641;51.306;12.384;2022-10-31T16:15:25;71.45;;;32.95;;
3257;SDS011;1641;51.306;12.384;2022-10-31T16:17:50;69.60;;;34.60;;
3257;SDS011;1641;51.306;12.384;2022-10-31T16:20:18;66.60;;;31.15;;
3257;SDS011;1641;51.306;12.384;2022-10-31T16:22:50;67.40;;;30.25;;
3257;SDS011;1641;51.306;12.384;2022-10-31T16:25:19;62.03;;;31.95;;
3257;SDS011;1641;51.306;12.384;2022-10-31T16:28:03;66.40;;;32.33;;
3257;SDS011;1641;51.306;12.384;2022-10-31T16:30:38;77.85;;;34.22;;
3257;SDS011;1641;51.306;12.384;2022-10-31T16:33:20;74.32;;;34.47;;
3257;SDS011;1641;51.306;12.384;2022-10-31T16:35:57;65.88;;;33.45;;
3257;SDS011;1641;51.306;12.384;2022-10-31T16:38:23;68.95;;;33.83;;
3257;SDS011;1641;51.306;12.384;2022-10-31T16:40:52;67.50;;;33.90;;
3257;SDS011;1641;51.306;12.384;2022-10-31T16:43:18;66.82;;;34.42;;
3257;SDS011;1641;51.306;12.384;2022-10-31T16:45:55;65.35;;;33.90;;
3257;SDS011;1641;51.306;12.384;2022-10-31T16:48:26;68.38;;;34.08;;
3257;SDS011;1641;51.306;12.384;2022-10-31T16:50:51;75.15;;;36.03;;
3257;SDS011;1641;51.306;12.384;2022-10-31T16:53:33;73.70;;;34.45;;
3257;SDS011;1641;51.306;12.384;2022-10-31T16:56:14;67.93;;;32.70;;
3257;SDS011;1641;51.306;12.384;2022-10-31T16:58:45;79.07;;;33.60;;
3257;SDS011;1641;51.306;12.384;2022-10-31T17:01:11;64.93;;;33.95;;
3257;SDS011;1641;51.306;12.384;2022-10-31T17:03:37;69.50;;;36.03;;
3257;SDS011;1641;51.306;12.384;2022-10-31T17:06:03;73.03;;;37.47;;
3257;SDS011;1641;51.306;12.384;2022-10-31T17:08:28;80.38;;;37.85;;
3257;SDS011;1641;51.306;12.384;2022-10-31T17:10:57;72.95;;;36.30;;
3257;SDS011;1641;51.306;12.384;2022-10-31T17:13:27;88.22;;;38.28;;
3257;SDS011;1641;51.306;12.384;2022-10-31T17:18:24;76.20;;;37.22;;
3257;SDS011;1641;51.306;12.384;2022-10-31T17:20:49;82.72;;;38.80;;
3257;SDS011;1641;51.306;12.384;2022-10-31T17:23:36;72.88;;;39.00;;
3257;SDS011;1641;51.306;12.384;2022-10-31T17:26:18;78.63;;;39.00;;
3257;SDS011;1641;51.306;12.384;2022-10-31T17:28:43;74.90;;;38.92;;
3257;SDS011;1641;51.306;12.384;2022-10-31T17:31:19;86.22;;;40.10;;